Apollo — WDC2576 — position and weather

sailwx.info

Track history (hours):
 
Tides and Currents Weather Stations Pressure Air Temp Water Temp Dewpoint Dewpoint Depression Visibility Wind Speed Wind Dir Waves Ship Positions

Apollo

Owner: Kirby Inland Marine LP, Houston, TX. More information available from US FCC via Universal Licensing System and Coast Guard Vessel Documentation Center.

Last reported at 2017-Nov-23 09:24 UTC. Time now 2017-Nov-24 00:21 UTC.
Position N 29°30' W 094°52'.

Length 23 m; draft 3 m.

Type: . MMSI: 366995180.

Date/timePositionNaut miles runAvg speedWind from/ knotsBaromVisibWave heightAir tempDewpointWater temp
2017-Nov-23 09:24N 29°30' W 094°52'3 7.0
2017-Nov-23 09:00N 29°32' W 094°54'4 7.8
2017-Nov-23 08:30N 29°36' W 094°57'4 7.8
2017-Nov-23 08:00N 29°39' W 094°58'4 7.8
2017-Nov-23 07:30N 29°42' W 095°01'4 7.2
2017-Nov-23 06:59N 29°45' W 095°04'2 2.7
2017-Nov-23 06:24N 29°45' W 095°06'1 0.5
2017-Nov-23 05:15N 29°46' W 095°06'1 3.7
2017-Nov-23 04:55N 29°46' W 095°05'2 5.9
2017-Nov-23 04:30N 29°44' W 095°03'4 7.7
2017-Nov-23 04:00N 29°41' W 094°59'4 9.0
2017-Nov-23 03:30N 29°37' W 094°57'5 9.8
2017-Nov-23 03:00N 29°33' W 094°55'  
2017-Nov-20 00:29N 29°35' W 094°56'3 7.2
2017-Nov-20 00:00N 29°38' W 094°58'3 5.5
2017-Nov-19 23:30N 29°40' W 094°59'2 4.4
2017-Nov-19 23:00N 29°42' W 095°01'3 4.1
2017-Nov-19 22:19N 29°44' W 095°03'3 0.1
2017-Nov-19 03:06N 29°46' W 095°05'1 0.1
2017-Nov-18 22:07N 29°46' W 095°04'1 6.1
2017-Nov-18 21:58N 29°45' W 095°04'3 1.3
2017-Nov-18 19:55N 29°43' W 095°01'2 5.8
2017-Nov-18 19:30N 29°44' W 095°04'1 0.3
2017-Nov-18 16:55N 29°45' W 095°04'3 5.1
2017-Nov-18 16:24N 29°44' W 095°01'0 0.0
2017-Nov-18 16:00N 29°44' W 095°01'2 1.2
2017-Nov-18 14:36N 29°44' W 095°03'0 0.7
2017-Nov-18 14:30N 29°44' W 095°03'0 0.0
2017-Nov-18 13:58N 29°44' W 095°03'3 0.4
2017-Nov-18 07:11N 29°45' W 095°06'1 3.4
2017-Nov-18 06:55N 29°46' W 095°05'1 0.0
2017-Nov-17 06:04N 29°46' W 095°05'0 6.1
2017-Nov-17 06:00N 29°46' W 095°05'0 0.2
2017-Nov-17 04:26N 29°46' W 095°05'1 1.4
2017-Nov-17 03:42N 29°46' W 095°06'2 0.4
2017-Nov-16 22:05N 29°45' W 095°04'1 8.6
2017-Nov-16 22:00N 29°45' W 095°04'3 5.6
2017-Nov-16 21:26N 29°43' W 095°01'2 4.8
2017-Nov-16 21:00N 29°41' W 094°59'4 8.1
2017-Nov-16 20:30N 29°38' W 094°58'4 8.2
2017-Nov-16 20:00N 29°34' W 094°55'5 8.5
2017-Nov-16 19:29N 29°30' W 094°52'  
2017-Nov-14 07:46N 29°32' W 094°54'2 7.4
2017-Nov-14 07:30N 29°33' W 094°55'4 7.8
2017-Nov-14 07:00N 29°37' W 094°57'4 8.1
2017-Nov-14 06:30N 29°41' W 094°59'4 7.5
2017-Nov-14 06:00N 29°44' W 095°02'4 1.4
2017-Nov-14 02:52N 29°47' W 095°04'2 1.2
2017-Nov-14 01:35N 29°46' W 095°05'0 3.9
2017-Nov-14 01:30N 29°46' W 095°04'3 4.5
2017-Nov-14 00:50N 29°44' W 095°02'1 4.4
2017-Nov-14 00:30N 29°42' W 095°01'2 3.7
2017-Nov-14 00:00N 29°43' W 095°03'  
Track history (hours):
 
Tides and Currents Weather Stations Pressure Air Temp Water Temp Dewpoint Dewpoint Depression Visibility Wind Speed Wind Dir Waves Ship Positions

Apollo

Owner: Kirby Inland Marine LP, Houston, TX. More information available from US FCC via Universal Licensing System and Coast Guard Vessel Documentation Center.

Last reported at 2017-Nov-23 09:24 UTC. Time now 2017-Nov-24 00:21 UTC.
Position N 29°30' W 094°52'.

Length 23 m; draft 3 m.

Type: . MMSI: 366995180.

Date/timePositionNaut miles runAvg speedWind from/ knotsBaromVisibWave heightAir tempDewpointWater temp
2017-Nov-23 09:24N 29°30' W 094°52'3 7.0
2017-Nov-23 09:00N 29°32' W 094°54'4 7.8
2017-Nov-23 08:30N 29°36' W 094°57'4 7.8
2017-Nov-23 08:00N 29°39' W 094°58'4 7.8
2017-Nov-23 07:30N 29°42' W 095°01'4 7.2
2017-Nov-23 06:59N 29°45' W 095°04'2 2.7
2017-Nov-23 06:24N 29°45' W 095°06'1 0.5
2017-Nov-23 05:15N 29°46' W 095°06'1 3.7
2017-Nov-23 04:55N 29°46' W 095°05'2 5.9
2017-Nov-23 04:30N 29°44' W 095°03'4 7.7
2017-Nov-23 04:00N 29°41' W 094°59'4 9.0
2017-Nov-23 03:30N 29°37' W 094°57'5 9.8
2017-Nov-23 03:00N 29°33' W 094°55'  
2017-Nov-20 00:29N 29°35' W 094°56'3 7.2
2017-Nov-20 00:00N 29°38' W 094°58'3 5.5
2017-Nov-19 23:30N 29°40' W 094°59'2 4.4
2017-Nov-19 23:00N 29°42' W 095°01'3 4.1
2017-Nov-19 22:19N 29°44' W 095°03'3 0.1
2017-Nov-19 03:06N 29°46' W 095°05'1 0.1
2017-Nov-18 22:07N 29°46' W 095°04'1 6.1
2017-Nov-18 21:58N 29°45' W 095°04'3 1.3
2017-Nov-18 19:55N 29°43' W 095°01'2 5.8
2017-Nov-18 19:30N 29°44' W 095°04'1 0.3
2017-Nov-18 16:55N 29°45' W 095°04'3 5.1
2017-Nov-18 16:24N 29°44' W 095°01'0 0.0
2017-Nov-18 16:00N 29°44' W 095°01'2 1.2
2017-Nov-18 14:36N 29°44' W 095°03'0 0.7
2017-Nov-18 14:30N 29°44' W 095°03'0 0.0
2017-Nov-18 13:58N 29°44' W 095°03'3 0.4
2017-Nov-18 07:11N 29°45' W 095°06'1 3.4
2017-Nov-18 06:55N 29°46' W 095°05'1 0.0
2017-Nov-17 06:04N 29°46' W 095°05'0 6.1
2017-Nov-17 06:00N 29°46' W 095°05'0 0.2
2017-Nov-17 04:26N 29°46' W 095°05'1 1.4
2017-Nov-17 03:42N 29°46' W 095°06'2 0.4
2017-Nov-16 22:05N 29°45' W 095°04'1 8.6
2017-Nov-16 22:00N 29°45' W 095°04'3 5.6
2017-Nov-16 21:26N 29°43' W 095°01'2 4.8
2017-Nov-16 21:00N 29°41' W 094°59'4 8.1
2017-Nov-16 20:30N 29°38' W 094°58'4 8.2
2017-Nov-16 20:00N 29°34' W 094°55'5 8.5
2017-Nov-16 19:29N 29°30' W 094°52'  
2017-Nov-14 07:46N 29°32' W 094°54'2 7.4
2017-Nov-14 07:30N 29°33' W 094°55'4 7.8
2017-Nov-14 07:00N 29°37' W 094°57'4 8.1
2017-Nov-14 06:30N 29°41' W 094°59'4 7.5
2017-Nov-14 06:00N 29°44' W 095°02'4 1.4
2017-Nov-14 02:52N 29°47' W 095°04'2 1.2
2017-Nov-14 01:35N 29°46' W 095°05'0 3.9
2017-Nov-14 01:30N 29°46' W 095°04'3 4.5
2017-Nov-14 00:50N 29°44' W 095°02'1 4.4
2017-Nov-14 00:30N 29°42' W 095°01'2 3.7
2017-Nov-14 00:00N 29°43' W 095°03'  

Dump ship's entire track history